createdAt,value
2023-01-09T00:00:53.316Z,7.00
2023-01-09T00:03:20.164Z,7.00
2023-01-09T00:05:47.004Z,7.00
2023-01-09T00:08:13.683Z,7.00
2023-01-09T00:10:40.405Z,6.90
2023-01-09T00:13:07.103Z,6.90
2023-01-09T00:15:33.806Z,6.90
2023-01-09T00:18:00.559Z,6.90
2023-01-09T00:20:27.321Z,6.90
2023-01-09T00:22:53.993Z,6.90
2023-01-09T00:25:22.659Z,6.90
2023-01-09T00:27:49.629Z,6.80
2023-01-09T00:30:16.376Z,6.80
2023-01-09T00:32:43.045Z,6.70
2023-01-09T00:35:14.970Z,6.70
2023-01-09T00:37:41.806Z,6.70
2023-01-09T00:40:09.312Z,6.70
2023-01-09T00:42:36.843Z,6.60
2023-01-09T00:45:10.636Z,6.60
2023-01-09T00:47:43.063Z,6.60
2023-01-09T00:50:21.037Z,6.60
2023-01-09T00:52:49.528Z,6.60
2023-01-09T00:55:17.152Z,6.50
2023-01-09T00:57:44.335Z,6.50
2023-01-09T01:00:11.833Z,6.50
2023-01-09T01:02:38.654Z,6.50
2023-01-09T01:05:24.831Z,6.50
2023-01-09T01:07:51.612Z,6.40
2023-01-09T01:10:23.196Z,6.40
2023-01-09T01:12:50.956Z,6.40
2023-01-09T01:15:18.787Z,6.30
2023-01-09T01:17:45.891Z,6.30
2023-01-09T01:20:16.278Z,6.30
2023-01-09T01:22:43.490Z,6.30
2023-01-09T01:25:12.470Z,6.20
2023-01-09T01:27:39.744Z,6.20
2023-01-09T01:30:08.923Z,6.20
2023-01-09T01:32:36.097Z,6.20
2023-01-09T01:35:02.868Z,6.10
2023-01-09T01:37:29.653Z,6.10
2023-01-09T01:39:56.514Z,6.10
2023-01-09T01:42:23.348Z,6.10
2023-01-09T01:45:08.121Z,6.00
2023-01-09T01:47:38.750Z,6.00
2023-01-09T01:50:16.404Z,6.00
2023-01-09T01:52:48.083Z,6.00
2023-01-09T01:55:17.303Z,5.90
2023-01-09T01:57:48.298Z,5.90
2023-01-09T02:00:15.536Z,5.90
2023-01-09T02:02:43.617Z,5.80
2023-01-09T02:05:10.717Z,5.80
2023-01-09T02:07:37.493Z,5.80
2023-01-09T02:10:04.785Z,5.80
2023-01-09T02:12:31.476Z,5.70
2023-01-09T02:15:11.732Z,5.70
2023-01-09T02:17:51.947Z,5.70
2023-01-09T02:20:33.203Z,5.70
2023-01-09T02:23:27.910Z,5.70
2023-01-09T02:26:32.181Z,5.70
2023-01-09T02:29:26.946Z,5.80
2023-01-09T02:32:04.061Z,5.80
2023-01-09T02:34:42.992Z,5.80
2023-01-09T02:37:29.231Z,5.80
2023-01-09T02:40:23.954Z,5.80
2023-01-09T02:42:52.108Z,5.80
2023-01-09T02:45:19.026Z,5.80
2023-01-09T02:47:47.107Z,5.80
2023-01-09T02:50:22.779Z,5.70
2023-01-09T02:52:52.540Z,5.70
2023-01-09T02:55:53.777Z,5.70
2023-01-09T02:58:20.408Z,5.60
2023-01-09T03:01:04.950Z,5.60
2023-01-09T03:03:51.977Z,5.60
2023-01-09T03:06:34.533Z,5.60
2023-01-09T03:09:06.858Z,5.60
2023-01-09T03:11:39.221Z,5.50
2023-01-09T03:14:12.239Z,5.60
2023-01-09T03:16:39.505Z,5.50
2023-01-09T03:19:11.783Z,5.50
2023-01-09T03:21:39.689Z,5.50
2023-01-09T03:24:07.286Z,5.50
2023-01-09T03:26:34.359Z,5.50
2023-01-09T03:29:01.521Z,5.50
2023-01-09T03:31:28.564Z,5.50
2023-01-09T03:33:55.509Z,5.40
2023-01-09T03:36:24.621Z,5.40
2023-01-09T03:38:51.498Z,5.40
2023-01-09T03:41:19.355Z,5.40
2023-01-09T03:43:48.316Z,5.40
2023-01-09T03:46:16.392Z,5.30
2023-01-09T03:48:43.371Z,5.30
2023-01-09T03:51:10.554Z,5.30
2023-01-09T03:53:37.608Z,5.30
2023-01-09T03:56:04.442Z,5.30
2023-01-09T03:58:31.214Z,5.20
2023-01-09T04:01:00.619Z,5.20
2023-01-09T04:03:27.783Z,5.20
2023-01-09T04:05:55.066Z,5.20
2023-01-09T04:08:21.972Z,5.10
2023-01-09T04:10:50.439Z,5.10
2023-01-09T04:13:17.780Z,5.10
2023-01-09T04:15:44.560Z,5.10
2023-01-09T04:18:11.388Z,5.10
2023-01-09T04:20:38.183Z,5.10
2023-01-09T04:23:04.891Z,5.10
2023-01-09T04:25:31.600Z,5.10
2023-01-09T04:27:58.598Z,5.10
2023-01-09T04:30:25.491Z,5.10
2023-01-09T04:32:52.389Z,5.10
2023-01-09T04:35:19.654Z,5.10
2023-01-09T04:37:46.365Z,5.10
2023-01-09T04:40:13.966Z,5.10
2023-01-09T04:42:41.329Z,5.10
2023-01-09T04:45:11.308Z,5.10
2023-01-09T04:47:38.239Z,5.10
2023-01-09T04:50:05.345Z,5.10
2023-01-09T04:52:32.994Z,5.10
2023-01-09T04:54:59.823Z,5.20
2023-01-09T04:57:26.601Z,5.20
2023-01-09T04:59:54.264Z,5.30
2023-01-09T05:02:21.437Z,5.30
2023-01-09T05:04:48.333Z,5.30
2023-01-09T05:07:15.105Z,5.30
2023-01-09T05:09:41.995Z,5.40
2023-01-09T05:12:08.865Z,5.40
2023-01-09T05:14:35.655Z,5.40
2023-01-09T05:17:02.583Z,5.50
2023-01-09T05:19:29.270Z,5.40
2023-01-09T05:21:56.049Z,5.50
2023-01-09T05:24:22.757Z,5.50
2023-01-09T05:26:49.482Z,5.50
2023-01-09T05:29:16.208Z,5.50
2023-01-09T05:31:42.975Z,5.50
2023-01-09T05:34:09.736Z,5.50
2023-01-09T05:36:36.386Z,5.50
2023-01-09T05:39:03.659Z,5.50
2023-01-09T05:41:30.391Z,5.50
2023-01-09T05:43:57.130Z,5.50
2023-01-09T05:46:23.882Z,5.50
2023-01-09T05:48:50.689Z,5.50
2023-01-09T05:51:17.408Z,5.50
2023-01-09T05:53:44.129Z,5.50
2023-01-09T05:56:11.773Z,5.50
2023-01-09T05:58:39.343Z,5.50
2023-01-09T06:01:06.654Z,5.50
2023-01-09T06:03:33.568Z,5.50
2023-01-09T06:06:00.526Z,5.60
2023-01-09T06:08:27.261Z,5.60
2023-01-09T06:10:53.965Z,5.60
2023-01-09T06:13:20.716Z,5.60
2023-01-09T06:15:48.680Z,5.70
2023-01-09T06:18:16.155Z,5.70
2023-01-09T06:20:45.668Z,5.70
2023-01-09T06:23:13.659Z,5.70
2023-01-09T06:25:41.159Z,5.70
2023-01-09T06:28:08.045Z,5.70
2023-01-09T06:30:35.146Z,5.80
2023-01-09T06:33:02.017Z,5.80
2023-01-09T06:35:29.088Z,5.80
2023-01-09T06:37:55.958Z,5.90
2023-01-09T06:40:22.880Z,5.90
2023-01-09T06:42:50.101Z,5.90
2023-01-09T06:45:16.853Z,6.00
2023-01-09T06:47:43.818Z,6.00
2023-01-09T06:50:11.874Z,6.00
2023-01-09T06:52:39.026Z,6.00
2023-01-09T06:55:06.518Z,6.00
2023-01-09T06:57:33.247Z,6.10
2023-01-09T07:00:00.010Z,6.10
2023-01-09T07:02:26.768Z,6.10
2023-01-09T07:04:53.508Z,6.10
2023-01-09T07:07:22.297Z,6.10
2023-01-09T07:09:49.229Z,6.20
2023-01-09T07:12:16.091Z,6.10
2023-01-09T07:14:42.849Z,6.20
2023-01-09T07:17:13.153Z,6.10
2023-01-09T07:19:39.907Z,6.20
2023-01-09T07:22:06.670Z,6.10
2023-01-09T07:24:33.361Z,6.20
2023-01-09T07:26:59.996Z,6.20
2023-01-09T07:29:26.768Z,6.20
2023-01-09T07:31:53.557Z,6.20
2023-01-09T07:34:20.343Z,6.20
2023-01-09T07:36:48.728Z,6.20
2023-01-09T07:39:16.573Z,6.20
2023-01-09T07:41:43.365Z,6.20
2023-01-09T07:44:11.187Z,6.20
2023-01-09T07:46:38.273Z,6.20
2023-01-09T07:49:05.308Z,6.20
2023-01-09T07:51:31.965Z,6.20
2023-01-09T07:53:58.738Z,6.20
2023-01-09T07:56:25.463Z,6.20
2023-01-09T07:58:54.573Z,6.30
2023-01-09T08:01:21.417Z,6.20
2023-01-09T08:03:48.169Z,6.30
2023-01-09T08:06:14.930Z,6.30
2023-01-09T08:08:41.695Z,6.30
2023-01-09T08:11:08.456Z,6.30
2023-01-09T08:13:38.135Z,6.30
2023-01-09T08:16:05.516Z,6.30
2023-01-09T08:18:32.219Z,6.30
2023-01-09T08:20:59.008Z,6.30
2023-01-09T08:23:26.024Z,6.30
2023-01-09T08:25:53.405Z,6.30
2023-01-09T08:28:20.062Z,6.30
2023-01-09T08:30:47.587Z,6.30
2023-01-09T08:33:14.527Z,6.30
2023-01-09T08:35:42.465Z,6.30
2023-01-09T08:38:09.225Z,6.30
2023-01-09T08:40:36.327Z,6.40
2023-01-09T08:43:21.830Z,6.40
2023-01-09T08:46:20.939Z,6.40
2023-01-09T08:48:50.808Z,6.50
2023-01-09T08:51:17.622Z,6.50
2023-01-09T08:53:44.374Z,6.50
2023-01-09T08:56:14.289Z,6.50
2023-01-09T08:58:41.106Z,6.50
2023-01-09T09:01:08.342Z,6.50
2023-01-09T09:03:35.252Z,6.60
2023-01-09T09:06:02.717Z,6.60
2023-01-09T09:08:29.806Z,6.60
2023-01-09T09:10:57.384Z,6.70
2023-01-09T09:13:24.113Z,6.70
2023-01-09T09:15:51.013Z,6.70
2023-01-09T09:18:17.863Z,6.80
2023-01-09T09:20:44.776Z,6.80
2023-01-09T09:23:11.626Z,6.80
2023-01-09T09:25:38.659Z,6.80
2023-01-09T09:28:06.357Z,6.80
2023-01-09T09:30:33.501Z,6.80
2023-01-09T09:33:03.517Z,6.80
2023-01-09T09:35:32.336Z,6.80
2023-01-09T09:38:05.165Z,6.80
2023-01-09T09:40:32.495Z,6.80
2023-01-09T09:43:39.627Z,6.80
2023-01-09T09:46:30.715Z,6.90
2023-01-09T09:49:14.675Z,6.90
2023-01-09T09:51:47.140Z,6.90
2023-01-09T09:54:19.420Z,7.00
2023-01-09T09:56:55.449Z,7.00
2023-01-09T09:59:27.091Z,7.00
2023-01-09T10:02:02.380Z,7.10
2023-01-09T10:04:32.360Z,7.10
2023-01-09T10:07:09.422Z,7.20
2023-01-09T10:09:48.331Z,7.30
2023-01-09T10:12:42.305Z,7.40
2023-01-09T10:15:25.603Z,7.50
2023-01-09T10:18:11.428Z,7.60
2023-01-09T10:20:43.627Z,7.60
2023-01-09T10:23:40.532Z,7.70
2023-01-09T10:26:16.693Z,7.80
2023-01-09T10:28:55.593Z,7.80
2023-01-09T10:31:40.414Z,7.80
2023-01-09T10:34:25.967Z,7.80
2023-01-09T10:37:10.493Z,7.90
2023-01-09T10:39:52.765Z,7.90
2023-01-09T10:43:00.461Z,7.90
2023-01-09T10:45:47.509Z,7.80
2023-01-09T10:48:29.007Z,7.80
2023-01-09T10:50:57.079Z,7.80
2023-01-09T10:53:28.783Z,7.70
2023-01-09T10:56:04.845Z,7.70
2023-01-09T10:58:31.690Z,7.70
2023-01-09T11:01:01.350Z,7.70
2023-01-09T11:03:28.801Z,7.60
2023-01-09T11:05:58.382Z,7.60
2023-01-09T11:08:41.802Z,7.60
2023-01-09T11:11:10.107Z,7.60
2023-01-09T11:13:38.480Z,7.50
2023-01-09T11:16:11.085Z,7.60
2023-01-09T11:18:47.578Z,7.60
2023-01-09T11:21:28.167Z,7.70
2023-01-09T11:23:56.180Z,7.80
2023-01-09T11:26:28.016Z,7.80
2023-01-09T11:29:14.547Z,8.00
2023-01-09T11:31:43.590Z,8.30
2023-01-09T11:34:17.849Z,8.50
2023-01-09T11:36:45.949Z,8.80
2023-01-09T11:39:27.838Z,8.90
2023-01-09T11:41:57.620Z,8.80
2023-01-09T11:44:25.888Z,8.60
2023-01-09T11:46:52.655Z,8.50
2023-01-09T11:49:24.112Z,8.40
2023-01-09T11:52:17.161Z,8.30
2023-01-09T11:55:04.456Z,8.30
2023-01-09T11:57:32.150Z,8.30
2023-01-09T12:00:02.628Z,8.30
2023-01-09T12:02:57.003Z,8.40
2023-01-09T12:05:48.940Z,8.70
2023-01-09T12:08:24.180Z,8.90
2023-01-09T12:11:11.089Z,8.90
2023-01-09T12:14:01.541Z,8.70
2023-01-09T12:16:44.574Z,8.60
2023-01-09T12:19:51.730Z,8.40
2023-01-09T12:22:37.424Z,8.20
2023-01-09T12:25:08.462Z,8.10
2023-01-09T12:28:19.794Z,7.90
2023-01-09T12:31:08.179Z,7.90
2023-01-09T12:33:57.420Z,7.80
2023-01-09T12:36:45.482Z,7.80
2023-01-09T12:39:33.432Z,7.80
2023-01-09T12:42:24.369Z,7.80
2023-01-09T12:45:24.633Z,8.00
2023-01-09T12:47:52.643Z,8.50
2023-01-09T12:51:03.248Z,8.90
2023-01-09T12:53:44.427Z,9.00
2023-01-09T12:56:25.216Z,9.10
2023-01-09T12:59:21.115Z,9.40
2023-01-09T13:01:49.961Z,9.50
2023-01-09T13:04:28.218Z,9.50
2023-01-09T13:07:02.556Z,9.30
2023-01-09T13:09:54.112Z,9.10
2023-01-09T13:12:24.497Z,9.00
2023-01-09T13:14:51.168Z,8.90
2023-01-09T13:17:45.681Z,8.80
2023-01-09T13:20:22.444Z,8.70
2023-01-09T13:22:53.927Z,8.60
2023-01-09T13:25:41.797Z,8.50
2023-01-09T13:28:37.765Z,8.40
2023-01-09T13:31:36.243Z,8.40
2023-01-09T13:34:08.690Z,8.40
2023-01-09T13:36:40.094Z,8.40
2023-01-09T13:39:07.391Z,8.40
2023-01-09T13:42:06.391Z,8.40
2023-01-09T13:44:34.525Z,8.40
2023-01-09T13:47:02.367Z,8.50
2023-01-09T13:49:46.840Z,8.50
2023-01-09T13:52:38.444Z,8.60
2023-01-09T13:55:17.009Z,8.70
2023-01-09T13:58:05.818Z,8.80
2023-01-09T14:00:35.654Z,8.90
2023-01-09T14:03:08.386Z,8.90
2023-01-09T14:05:35.207Z,8.80
2023-01-09T14:08:07.049Z,8.80
2023-01-09T14:10:38.248Z,8.80
2023-01-09T14:13:22.022Z,8.80
2023-01-09T14:15:49.778Z,8.80
2023-01-09T14:18:26.668Z,8.70
2023-01-09T14:21:23.423Z,8.60
2023-01-09T14:24:06.853Z,8.50
2023-01-09T14:26:46.007Z,8.40
2023-01-09T14:29:35.728Z,8.30
2023-01-09T14:32:30.610Z,8.30
2023-01-09T14:35:02.900Z,8.20
2023-01-09T14:37:30.954Z,8.20
2023-01-09T14:39:58.715Z,8.20
2023-01-09T14:42:28.940Z,8.10
2023-01-09T14:45:14.063Z,8.10
2023-01-09T14:47:45.492Z,8.00
2023-01-09T14:50:35.586Z,8.00
2023-01-09T14:53:02.254Z,8.00
2023-01-09T14:55:57.682Z,8.00
2023-01-09T14:58:28.648Z,8.00
2023-01-09T15:01:05.416Z,7.90
2023-01-09T15:03:45.959Z,8.00
2023-01-09T15:06:20.774Z,8.00
2023-01-09T15:08:53.881Z,8.00
2023-01-09T15:11:20.775Z,8.00
2023-01-09T15:13:50.095Z,8.00
2023-01-09T15:16:21.265Z,8.00
2023-01-09T15:18:55.237Z,8.00
2023-01-09T15:21:27.276Z,8.00
2023-01-09T15:23:54.413Z,8.00
2023-01-09T15:26:26.306Z,7.90
2023-01-09T15:29:00.081Z,7.90
2023-01-09T15:31:27.647Z,7.90
2023-01-09T15:33:55.046Z,7.80
2023-01-09T15:36:26.814Z,7.80
2023-01-09T15:38:54.646Z,7.70
2023-01-09T15:41:45.428Z,7.70
2023-01-09T15:44:19.804Z,7.70
2023-01-09T15:46:50.019Z,7.60
2023-01-09T15:49:17.750Z,7.50
2023-01-09T15:51:49.190Z,7.50
2023-01-09T15:54:27.162Z,7.50
2023-01-09T15:56:53.865Z,7.50
2023-01-09T15:59:28.537Z,7.40
2023-01-09T16:02:20.450Z,7.40
2023-01-09T16:04:48.236Z,7.30
2023-01-09T16:07:18.829Z,7.30
2023-01-09T16:09:47.577Z,7.20
2023-01-09T16:12:28.269Z,7.20
2023-01-09T16:14:58.054Z,7.10
2023-01-09T16:17:26.988Z,7.10
2023-01-09T16:20:15.952Z,7.10
2023-01-09T16:22:55.170Z,7.00
2023-01-09T16:25:31.915Z,7.00
2023-01-09T16:28:28.157Z,7.00
2023-01-09T16:30:59.212Z,6.90
2023-01-09T16:33:28.230Z,6.90
2023-01-09T16:35:55.454Z,6.90
2023-01-09T16:38:25.966Z,6.90
2023-01-09T16:41:18.457Z,6.90
2023-01-09T16:43:45.541Z,6.80
2023-01-09T16:46:16.323Z,6.80
2023-01-09T16:48:43.394Z,6.80
2023-01-09T16:51:21.751Z,6.80
2023-01-09T16:53:49.608Z,6.80
2023-01-09T16:56:29.942Z,6.80
2023-01-09T16:58:57.064Z,6.80
2023-01-09T17:01:24.048Z,6.80
2023-01-09T17:03:52.529Z,6.90
2023-01-09T17:06:30.053Z,6.80
2023-01-09T17:08:57.657Z,6.80
2023-01-09T17:11:33.932Z,6.80
2023-01-09T17:14:02.012Z,6.90
2023-01-09T17:16:29.849Z,6.90
2023-01-09T17:18:57.005Z,6.90
2023-01-09T17:21:26.982Z,6.90
2023-01-09T17:24:12.465Z,6.90
2023-01-09T17:27:00.216Z,6.80
2023-01-09T17:29:28.084Z,6.90
2023-01-09T17:31:56.345Z,6.90
2023-01-09T17:34:23.224Z,6.80
2023-01-09T17:36:49.975Z,6.80
2023-01-09T17:39:17.579Z,6.80
2023-01-09T17:41:44.497Z,6.80
2023-01-09T17:44:12.303Z,6.70
2023-01-09T17:46:44.639Z,6.70
2023-01-09T17:49:17.930Z,6.70
2023-01-09T17:51:45.609Z,6.70
2023-01-09T17:54:12.977Z,6.70
2023-01-09T17:56:45.685Z,6.70
2023-01-09T17:59:14.221Z,6.70
2023-01-09T18:01:42.374Z,6.70
2023-01-09T18:04:09.437Z,6.70
2023-01-09T18:06:36.662Z,6.70
2023-01-09T18:09:05.292Z,6.60
2023-01-09T18:11:32.063Z,6.70
2023-01-09T18:13:58.887Z,6.70
2023-01-09T18:16:27.362Z,6.60
2023-01-09T18:18:57.686Z,6.70
2023-01-09T18:21:26.593Z,6.60
2023-01-09T18:23:53.715Z,6.60
2023-01-09T18:26:21.622Z,6.60
2023-01-09T18:28:50.694Z,6.60
2023-01-09T18:31:22.153Z,6.60
2023-01-09T18:33:52.959Z,6.50
2023-01-09T18:36:22.068Z,6.50
2023-01-09T18:38:53.272Z,6.50
2023-01-09T18:41:20.990Z,6.60
2023-01-09T18:43:52.533Z,6.60
2023-01-09T18:46:24.016Z,6.60
2023-01-09T18:48:55.421Z,6.60
2023-01-09T18:51:24.083Z,6.60
2023-01-09T18:53:51.684Z,6.60
2023-01-09T18:56:19.941Z,6.60
2023-01-09T18:58:47.646Z,6.70
2023-01-09T19:01:15.263Z,6.70
2023-01-09T19:03:42.524Z,6.60
2023-01-09T19:06:09.778Z,6.70
2023-01-09T19:08:37.016Z,6.70
2023-01-09T19:11:04.934Z,6.70
2023-01-09T19:13:34.335Z,6.70
2023-01-09T19:16:01.716Z,6.70
2023-01-09T19:18:30.679Z,6.70
2023-01-09T19:20:57.427Z,6.70
2023-01-09T19:23:27.323Z,6.70
2023-01-09T19:25:54.375Z,6.70
2023-01-09T19:28:21.567Z,6.70
2023-01-09T19:30:55.668Z,6.70
2023-01-09T19:33:26.298Z,6.60
2023-01-09T19:35:53.628Z,6.60
2023-01-09T19:38:22.531Z,6.60
2023-01-09T19:40:49.411Z,6.60
2023-01-09T19:43:25.812Z,6.60
2023-01-09T19:45:56.900Z,6.60
2023-01-09T19:48:27.013Z,6.60
2023-01-09T19:51:04.744Z,6.50
2023-01-09T19:53:32.783Z,6.50
2023-01-09T19:56:16.123Z,6.50
2023-01-09T19:58:47.834Z,6.50
2023-01-09T20:01:17.155Z,6.40
2023-01-09T20:03:46.473Z,6.40
2023-01-09T20:06:17.473Z,6.40
2023-01-09T20:08:45.675Z,6.40
2023-01-09T20:11:12.417Z,6.40
2023-01-09T20:13:39.499Z,6.40
2023-01-09T20:16:07.139Z,6.30
2023-01-09T20:18:34.902Z,6.30
2023-01-09T20:21:03.396Z,6.30
2023-01-09T20:23:32.530Z,6.30
2023-01-09T20:26:00.003Z,6.30
2023-01-09T20:28:27.962Z,6.20
2023-01-09T20:30:54.778Z,6.20
2023-01-09T20:33:22.228Z,6.20
2023-01-09T20:35:49.196Z,6.20
2023-01-09T20:38:15.933Z,6.20
2023-01-09T20:40:43.870Z,6.20
2023-01-09T20:43:12.856Z,6.20
2023-01-09T20:45:40.670Z,6.20
2023-01-09T20:48:08.297Z,6.20
2023-01-09T20:50:35.403Z,6.10
2023-01-09T20:53:03.690Z,6.20
2023-01-09T20:55:30.815Z,6.20
2023-01-09T20:57:57.544Z,6.20
2023-01-09T21:00:27.387Z,6.10
2023-01-09T21:02:54.397Z,6.20
2023-01-09T21:05:21.132Z,6.10
2023-01-09T21:07:48.411Z,6.10
2023-01-09T21:10:15.498Z,6.10
2023-01-09T21:12:42.226Z,6.00
2023-01-09T21:15:12.421Z,6.00
2023-01-09T21:17:40.166Z,6.00
2023-01-09T21:20:09.979Z,6.00
2023-01-09T21:22:39.480Z,6.00
2023-01-09T21:25:07.472Z,6.00
2023-01-09T21:27:39.788Z,6.00
2023-01-09T21:30:08.453Z,6.00
2023-01-09T21:32:35.426Z,6.10
2023-01-09T21:35:05.912Z,6.10
2023-01-09T21:37:35.384Z,6.10
2023-01-09T21:40:03.036Z,6.10
2023-01-09T21:42:48.213Z,6.10
2023-01-09T21:45:35.598Z,6.10
2023-01-09T21:48:06.589Z,6.10
2023-01-09T21:50:34.038Z,6.10
2023-01-09T21:53:00.798Z,6.10
2023-01-09T21:55:27.546Z,6.10
2023-01-09T21:57:57.055Z,6.10
2023-01-09T22:00:24.474Z,6.20
2023-01-09T22:02:51.667Z,6.20
2023-01-09T22:05:18.315Z,6.20
2023-01-09T22:07:44.964Z,6.20
2023-01-09T22:10:12.462Z,6.20
2023-01-09T22:12:39.357Z,6.20
2023-01-09T22:15:06.585Z,6.10
2023-01-09T22:17:33.354Z,6.20
2023-01-09T22:20:00.074Z,6.20
2023-01-09T22:22:29.643Z,6.30
2023-01-09T22:24:56.369Z,6.20
2023-01-09T22:27:23.072Z,6.20
2023-01-09T22:29:49.853Z,6.30
2023-01-09T22:32:16.552Z,6.30
2023-01-09T22:34:43.236Z,6.30
2023-01-09T22:37:10.023Z,6.30
2023-01-09T22:39:36.975Z,6.30
2023-01-09T22:42:03.829Z,6.30
2023-01-09T22:44:30.502Z,6.30
2023-01-09T22:46:58.354Z,6.30
2023-01-09T22:49:26.512Z,6.30
2023-01-09T22:51:56.755Z,6.30
2023-01-09T22:54:23.407Z,6.30
2023-01-09T22:56:51.093Z,6.30
2023-01-09T22:59:18.138Z,6.40
2023-01-09T23:01:44.926Z,6.30
2023-01-09T23:04:13.571Z,6.30
2023-01-09T23:06:40.467Z,6.30
2023-01-09T23:09:07.660Z,6.30
2023-01-09T23:11:52.884Z,6.30
2023-01-09T23:14:21.201Z,6.20
2023-01-09T23:16:48.115Z,6.20
2023-01-09T23:19:15.589Z,6.10
2023-01-09T23:21:44.558Z,6.10
2023-01-09T23:24:12.050Z,6.10
2023-01-09T23:26:39.292Z,6.10
2023-01-09T23:29:07.336Z,6.00
2023-01-09T23:31:35.164Z,6.00
2023-01-09T23:34:03.622Z,6.00
2023-01-09T23:36:30.818Z,5.90
2023-01-09T23:38:57.800Z,5.90
2023-01-09T23:41:44.474Z,5.90
2023-01-09T23:44:11.245Z,5.90
2023-01-09T23:46:37.936Z,6.00
2023-01-09T23:49:04.627Z,6.00
2023-01-09T23:51:31.280Z,5.90
2023-01-09T23:53:57.989Z,6.00
2023-01-09T23:56:24.744Z,6.00
2023-01-09T23:58:51.436Z,6.00
